createdAt,value
2019-02-08T00:00:21.125Z,10.10
2019-02-08T00:02:49.808Z,10.30
2019-02-08T00:05:18.816Z,10.20
2019-02-08T00:07:47.490Z,10.20
2019-02-08T00:10:17.830Z,9.90
2019-02-08T00:12:46.587Z,10.10
2019-02-08T00:15:17.905Z,10.00
2019-02-08T00:17:46.664Z,10.00
2019-02-08T00:20:19.748Z,10.10
2019-02-08T00:22:48.562Z,9.90
2019-02-08T00:25:21.694Z,10.00
2019-02-08T00:27:50.403Z,10.00
2019-02-08T00:30:22.058Z,9.90
2019-02-08T00:32:51.112Z,9.90
2019-02-08T00:35:20.074Z,10.10
2019-02-08T00:37:48.873Z,10.00
2019-02-08T00:40:19.267Z,9.90
2019-02-08T00:42:47.987Z,9.90
2019-02-08T00:45:18.329Z,10.00
2019-02-08T00:47:47.492Z,9.80
2019-02-08T00:50:18.858Z,9.60
2019-02-08T00:52:47.729Z,9.90
2019-02-08T00:55:16.818Z,10.10
2019-02-08T00:57:47.140Z,9.90
2019-02-08T01:00:17.132Z,10.10
2019-02-08T01:02:48.687Z,9.80
2019-02-08T01:05:20.117Z,9.90
2019-02-08T01:07:49.339Z,9.90
2019-02-08T01:10:23.857Z,10.00
2019-02-08T01:12:52.662Z,10.10
2019-02-08T01:15:22.527Z,9.80
2019-02-08T01:17:51.351Z,9.60
2019-02-08T01:20:22.001Z,9.70
2019-02-08T01:22:50.728Z,9.50
2019-02-08T01:25:30.637Z,9.60
2019-02-08T01:27:59.483Z,9.80
2019-02-08T01:30:34.878Z,9.70
2019-02-08T01:33:04.251Z,9.50
2019-02-08T01:35:32.913Z,9.70
2019-02-08T01:38:02.115Z,9.70
2019-02-08T01:40:33.357Z,9.80
2019-02-08T01:43:02.058Z,9.70
2019-02-08T01:45:32.823Z,9.60
2019-02-08T01:48:01.728Z,9.60
2019-02-08T01:50:31.200Z,9.70
2019-02-08T01:52:59.850Z,9.80
2019-02-08T01:55:28.844Z,9.80
2019-02-08T01:57:57.752Z,9.70
2019-02-08T02:00:31.771Z,9.80
2019-02-08T02:03:00.872Z,9.70
2019-02-08T02:05:29.543Z,9.70
2019-02-08T02:07:58.234Z,9.60
2019-02-08T02:10:29.429Z,9.60
2019-02-08T02:12:58.383Z,9.80
2019-02-08T02:15:27.301Z,9.90
2019-02-08T02:17:56.092Z,9.60
2019-02-08T02:20:27.338Z,9.90
2019-02-08T02:22:56.048Z,9.90
2019-02-08T02:25:25.309Z,9.80
2019-02-08T02:27:54.009Z,9.80
2019-02-08T02:30:28.528Z,9.90
2019-02-08T02:32:57.344Z,9.70
2019-02-08T02:35:26.047Z,9.80
2019-02-08T02:37:54.802Z,9.80
2019-02-08T02:40:23.633Z,10.00
2019-02-08T02:42:52.482Z,9.80
2019-02-08T02:45:29.972Z,10.10
2019-02-08T02:47:58.753Z,9.70
2019-02-08T02:50:27.596Z,9.90
2019-02-08T02:52:56.315Z,9.60
2019-02-08T02:55:27.124Z,10.10
2019-02-08T02:57:56.043Z,9.90
2019-02-08T03:00:37.028Z,9.90
2019-02-08T03:03:06.106Z,10.00
2019-02-08T03:05:35.166Z,10.00
2019-02-08T03:08:04.971Z,10.00
2019-02-08T03:10:33.762Z,10.00
2019-02-08T03:13:02.475Z,10.00
2019-02-08T03:15:31.130Z,9.90
2019-02-08T03:17:59.837Z,10.00
2019-02-08T03:20:28.550Z,10.20
2019-02-08T03:22:57.230Z,10.00
2019-02-08T03:25:29.925Z,10.40
2019-02-08T03:27:58.626Z,10.30
2019-02-08T03:30:34.428Z,10.10
2019-02-08T03:33:03.475Z,10.10
2019-02-08T03:35:32.504Z,9.90
2019-02-08T03:38:01.213Z,9.90
2019-02-08T03:40:31.176Z,10.10
2019-02-08T03:42:59.870Z,10.00
2019-02-08T03:45:30.344Z,10.30
2019-02-08T03:47:59.048Z,10.00
2019-02-08T03:50:27.759Z,10.00
2019-02-08T03:52:56.545Z,10.10
2019-02-08T03:55:25.599Z,10.00
2019-02-08T03:57:54.321Z,9.90
2019-02-08T04:00:26.879Z,9.90
2019-02-08T04:02:55.547Z,9.90
2019-02-08T04:05:24.651Z,10.00
2019-02-08T04:07:53.543Z,9.80
2019-02-08T04:10:22.428Z,10.00
2019-02-08T04:12:51.145Z,10.20
2019-02-08T04:15:24.263Z,9.80
2019-02-08T04:17:53.093Z,10.10
2019-02-08T04:20:26.680Z,9.90
2019-02-08T04:22:57.357Z,9.90
2019-02-08T04:25:26.427Z,10.00
2019-02-08T04:27:55.457Z,10.00
2019-02-08T04:30:33.615Z,9.90
2019-02-08T04:33:03.328Z,10.10
2019-02-08T04:35:32.103Z,10.00
2019-02-08T04:38:00.856Z,10.20
2019-02-08T04:40:29.534Z,10.10
2019-02-08T04:42:58.223Z,9.90
2019-02-08T04:45:27.103Z,9.90
2019-02-08T04:47:55.796Z,9.90
2019-02-08T04:50:26.858Z,9.90
2019-02-08T04:52:55.719Z,10.00
2019-02-08T04:55:24.419Z,10.10
2019-02-08T04:57:53.077Z,9.70
2019-02-08T05:00:24.549Z,10.10
2019-02-08T05:02:53.383Z,10.10
2019-02-08T05:05:22.978Z,10.00
2019-02-08T05:07:51.668Z,10.00
2019-02-08T05:10:25.892Z,9.90
2019-02-08T05:12:54.597Z,9.80
2019-02-08T05:15:23.886Z,9.90
2019-02-08T05:17:52.731Z,9.80
2019-02-08T05:20:26.931Z,10.00
2019-02-08T05:22:55.622Z,9.90
2019-02-08T05:25:24.535Z,10.00
2019-02-08T05:27:53.481Z,9.80
2019-02-08T05:30:24.994Z,9.90
2019-02-08T05:32:53.805Z,10.00
2019-02-08T05:35:22.671Z,9.70
2019-02-08T05:37:51.598Z,9.70
2019-02-08T05:40:21.503Z,9.90
2019-02-08T05:42:50.375Z,10.00
2019-02-08T05:45:21.074Z,9.90
2019-02-08T05:47:49.750Z,9.70
2019-02-08T05:50:21.039Z,10.00
2019-02-08T05:52:49.778Z,9.70
2019-02-08T05:55:21.076Z,9.60
2019-02-08T05:57:49.795Z,10.10
2019-02-08T06:00:34.284Z,10.00
2019-02-08T06:03:03.037Z,10.00
2019-02-08T06:05:31.834Z,10.10
2019-02-08T06:08:00.520Z,9.70
2019-02-08T06:10:29.434Z,10.00
2019-02-08T06:12:58.122Z,10.00
2019-02-08T06:15:26.818Z,9.90
2019-02-08T06:17:55.614Z,9.70
2019-02-08T06:20:26.092Z,9.60
2019-02-08T06:22:54.902Z,10.00
2019-02-08T06:25:24.453Z,9.90
2019-02-08T06:27:53.273Z,9.90
2019-02-08T06:30:31.476Z,9.70
2019-02-08T06:33:00.383Z,9.70
2019-02-08T06:35:30.894Z,9.70
2019-02-08T06:37:59.551Z,9.70
2019-02-08T06:40:33.699Z,9.80
2019-02-08T06:43:02.363Z,9.80
2019-02-08T06:45:31.224Z,9.60
2019-02-08T06:48:00.007Z,9.60
2019-02-08T06:50:28.876Z,9.80
2019-02-08T06:52:57.673Z,9.60
2019-02-08T06:55:26.406Z,9.60
2019-02-08T06:58:08.563Z,9.70
2019-02-08T07:00:38.851Z,9.60
2019-02-08T07:03:24.259Z,10.00
2019-02-08T07:06:09.611Z,9.90
2019-02-08T07:08:55.023Z,9.80
2019-02-08T07:11:43.510Z,9.50
2019-02-08T07:14:13.791Z,9.50
2019-02-08T07:16:49.820Z,9.40
2019-02-08T07:19:28.927Z,9.50
2019-02-08T07:21:59.167Z,9.70
2019-02-08T07:24:32.285Z,9.70
2019-02-08T07:27:02.564Z,9.60
2019-02-08T07:29:35.422Z,9.60
2019-02-08T07:32:22.454Z,9.70
2019-02-08T07:34:56.000Z,9.80
2019-02-08T07:37:26.347Z,9.80
2019-02-08T07:40:05.217Z,9.60
2019-02-08T07:42:41.522Z,9.90
2019-02-08T07:45:27.869Z,9.80
2019-02-08T07:48:04.531Z,9.80
2019-02-08T07:50:43.585Z,9.70
2019-02-08T07:53:19.833Z,9.80
2019-02-08T07:55:53.667Z,10.00
2019-02-08T07:58:24.115Z,10.00
2019-02-08T08:01:04.942Z,10.00
2019-02-08T08:03:51.515Z,10.00
2019-02-08T08:06:24.713Z,10.00
2019-02-08T08:08:57.759Z,10.10
2019-02-08T08:11:28.028Z,10.10
2019-02-08T08:14:14.999Z,10.00
2019-02-08T08:16:47.747Z,10.00
2019-02-08T08:19:26.084Z,9.90
2019-02-08T08:21:59.181Z,10.10
2019-02-08T08:24:37.088Z,9.90
2019-02-08T08:27:07.369Z,10.10
2019-02-08T08:29:45.081Z,10.10
2019-02-08T08:32:17.246Z,10.10
2019-02-08T08:35:14.444Z,10.00
2019-02-08T08:37:49.024Z,9.90
2019-02-08T08:40:47.497Z,10.00
2019-02-08T08:43:19.174Z,10.00
2019-02-08T08:45:56.668Z,10.20
2019-02-08T08:48:41.634Z,10.10
2019-02-08T08:51:28.667Z,9.90
2019-02-08T08:54:15.213Z,10.10
2019-02-08T08:56:49.852Z,10.10
2019-02-08T08:59:24.420Z,10.00
2019-02-08T09:01:56.102Z,10.10
2019-02-08T09:04:42.928Z,10.20
2019-02-08T09:07:47.962Z,10.00
2019-02-08T09:10:40.734Z,10.30
2019-02-08T09:13:18.184Z,10.00
2019-02-08T09:15:49.777Z,9.80
2019-02-08T09:18:30.234Z,10.00
2019-02-08T09:21:21.304Z,10.00
2019-02-08T09:24:01.999Z,10.20
2019-02-08T09:26:48.593Z,10.10
2019-02-08T09:29:43.007Z,10.20
2019-02-08T09:32:24.124Z,10.20
2019-02-08T09:35:07.779Z,10.50
2019-02-08T09:38:11.378Z,10.60
2019-02-08T09:41:01.297Z,10.40
2019-02-08T09:43:51.269Z,10.30
2019-02-08T09:46:56.256Z,10.40
2019-02-08T09:49:33.975Z,10.50
2019-02-08T09:52:23.886Z,10.30
2019-02-08T09:55:12.291Z,10.30
2019-02-08T09:57:52.949Z,10.80
2019-02-08T10:00:50.514Z,10.30
2019-02-08T10:03:41.929Z,10.40
2019-02-08T10:06:31.741Z,10.50
2019-02-08T10:09:09.106Z,10.60
2019-02-08T10:12:15.018Z,10.80
2019-02-08T10:15:20.395Z,10.70
2019-02-08T10:18:09.766Z,10.80
2019-02-08T10:20:47.447Z,10.80
2019-02-08T10:23:28.242Z,10.60
2019-02-08T10:26:24.490Z,10.70
2019-02-08T10:29:11.320Z,11.00
2019-02-08T10:31:55.015Z,11.00
2019-02-08T10:34:58.709Z,10.80
2019-02-08T10:37:45.494Z,11.00
2019-02-08T10:40:35.522Z,10.90
2019-02-08T10:43:22.214Z,11.10
2019-02-08T10:46:03.078Z,11.00
2019-02-08T10:48:37.708Z,10.90
2019-02-08T10:51:31.774Z,11.10
2019-02-08T10:54:20.148Z,11.00
2019-02-08T10:57:11.559Z,11.00
2019-02-08T10:59:49.237Z,11.20
2019-02-08T11:02:52.963Z,11.00
2019-02-08T11:05:57.954Z,11.00
2019-02-08T11:09:04.918Z,11.20
2019-02-08T11:12:10.085Z,10.80
2019-02-08T11:14:44.324Z,10.80
2019-02-08T11:17:44.880Z,10.90
2019-02-08T11:20:13.592Z,11.10
2019-02-08T11:22:42.289Z,10.90
2019-02-08T11:25:11.408Z,11.00
2019-02-08T11:27:40.314Z,11.00
2019-02-08T11:30:14.951Z,11.30
2019-02-08T11:32:43.779Z,11.50
2019-02-08T11:35:13.025Z,11.50
2019-02-08T11:37:41.809Z,11.60
2019-02-08T11:40:15.970Z,11.70
2019-02-08T11:42:44.646Z,11.70
2019-02-08T11:45:15.552Z,11.70
2019-02-08T11:47:44.262Z,11.60
2019-02-08T11:50:16.256Z,11.90
2019-02-08T11:52:44.947Z,11.90
2019-02-08T11:55:13.977Z,11.70
2019-02-08T11:57:42.642Z,11.70
2019-02-08T12:00:25.010Z,11.90
2019-02-08T12:02:53.679Z,12.00
2019-02-08T12:05:22.409Z,12.00
2019-02-08T12:07:51.122Z,11.90
2019-02-08T12:10:19.862Z,11.80
2019-02-08T12:12:48.577Z,12.00
2019-02-08T12:15:19.949Z,12.00
2019-02-08T12:17:48.624Z,12.20
2019-02-08T12:20:17.402Z,12.00
2019-02-08T12:22:46.109Z,12.00
2019-02-08T12:25:16.299Z,11.90
2019-02-08T12:27:44.986Z,12.00
2019-02-08T12:30:31.887Z,12.00
2019-02-08T12:33:00.580Z,12.10
2019-02-08T12:35:29.287Z,12.20
2019-02-08T12:37:57.961Z,12.40
2019-02-08T12:40:26.672Z,12.50
2019-02-08T12:42:55.447Z,12.20
2019-02-08T12:45:24.161Z,12.50
2019-02-08T12:47:52.879Z,12.30
2019-02-08T12:50:21.595Z,12.40
2019-02-08T12:52:50.281Z,12.20
2019-02-08T12:55:20.399Z,12.30
2019-02-08T12:57:49.280Z,12.40
2019-02-08T13:00:26.466Z,12.50
2019-02-08T13:02:55.392Z,12.60
2019-02-08T13:05:24.189Z,12.40
2019-02-08T13:07:53.159Z,12.70
2019-02-08T13:10:30.019Z,12.50
2019-02-08T13:12:58.775Z,12.20
2019-02-08T13:15:27.518Z,12.30
2019-02-08T13:17:56.180Z,12.40
2019-02-08T13:20:25.158Z,12.30
2019-02-08T13:22:53.859Z,12.50
2019-02-08T13:25:22.565Z,12.40
2019-02-08T13:27:51.266Z,12.70
2019-02-08T13:30:23.137Z,12.40
2019-02-08T13:32:51.848Z,12.60
2019-02-08T13:35:20.590Z,12.40
2019-02-08T13:37:49.467Z,12.30
2019-02-08T13:40:21.638Z,12.40
2019-02-08T13:42:50.334Z,12.40
2019-02-08T13:45:19.149Z,12.20
2019-02-08T13:47:47.966Z,12.20
2019-02-08T13:50:30.570Z,12.30
2019-02-08T13:52:59.572Z,12.30
2019-02-08T13:55:28.353Z,12.60
2019-02-08T13:57:57.179Z,12.40
2019-02-08T14:00:34.363Z,12.50
2019-02-08T14:03:03.078Z,12.20
2019-02-08T14:05:31.842Z,12.20
2019-02-08T14:08:00.567Z,12.50
2019-02-08T14:10:29.312Z,12.50
2019-02-08T14:12:58.079Z,12.40
2019-02-08T14:15:27.606Z,12.60
2019-02-08T14:17:56.313Z,12.60
2019-02-08T14:20:27.126Z,12.60
2019-02-08T14:22:56.093Z,12.50
2019-02-08T14:25:25.407Z,12.40
2019-02-08T14:27:54.176Z,12.20
2019-02-08T14:30:34.755Z,12.10
2019-02-08T14:33:03.689Z,12.00
2019-02-08T14:35:32.647Z,12.30
2019-02-08T14:38:02.608Z,12.30
2019-02-08T14:40:31.412Z,12.10
2019-02-08T14:43:00.178Z,12.20
2019-02-08T14:45:30.369Z,12.10
2019-02-08T14:47:59.060Z,12.00
2019-02-08T14:50:29.035Z,11.90
2019-02-08T14:52:58.750Z,12.10
2019-02-08T14:55:27.526Z,12.00
2019-02-08T14:57:59.442Z,12.10
2019-02-08T15:00:28.188Z,12.10
2019-02-08T15:02:56.875Z,12.20
2019-02-08T15:05:25.579Z,12.10
2019-02-08T15:07:54.288Z,12.10
2019-02-08T15:10:34.011Z,11.80
2019-02-08T15:13:02.729Z,12.20
2019-02-08T15:15:31.408Z,12.00
2019-02-08T15:18:00.324Z,12.20
2019-02-08T15:20:31.538Z,12.10
2019-02-08T15:23:00.242Z,12.20
2019-02-08T15:25:29.443Z,12.10
2019-02-08T15:27:58.364Z,11.90
2019-02-08T15:30:34.825Z,12.10
2019-02-08T15:33:03.749Z,12.10
2019-02-08T15:35:34.990Z,12.10
2019-02-08T15:38:04.617Z,12.10
2019-02-08T15:40:48.006Z,12.00
2019-02-08T15:43:19.025Z,11.90
2019-02-08T15:45:53.551Z,11.90
2019-02-08T15:48:22.336Z,12.00
2019-02-08T15:50:51.317Z,12.00
2019-02-08T15:53:20.016Z,12.00
2019-02-08T15:56:06.873Z,12.00
2019-02-08T15:58:35.660Z,12.00
2019-02-08T16:01:07.276Z,12.00
2019-02-08T16:03:35.977Z,12.00
2019-02-08T16:06:05.310Z,12.10
2019-02-08T16:08:34.039Z,12.10
2019-02-08T16:11:02.723Z,12.10
2019-02-08T16:13:31.429Z,12.10
2019-02-08T16:16:00.147Z,12.00
2019-02-08T16:18:28.852Z,11.90
2019-02-08T16:20:57.532Z,11.90
2019-02-08T16:23:26.363Z,11.90
2019-02-08T16:25:55.228Z,12.00
2019-02-08T16:28:23.923Z,11.90
2019-02-08T16:30:52.686Z,11.90
2019-02-08T16:33:21.454Z,12.30
2019-02-08T16:35:50.461Z,12.30
2019-02-08T16:38:19.242Z,12.20
2019-02-08T16:40:47.944Z,12.20
2019-02-08T16:43:16.730Z,12.10
2019-02-08T16:45:45.660Z,12.10
2019-02-08T16:48:14.723Z,12.10
2019-02-08T16:50:44.238Z,12.00
2019-02-08T16:53:13.458Z,12.00
2019-02-08T16:55:42.159Z,11.90
2019-02-08T16:58:12.979Z,11.70
2019-02-08T17:00:42.916Z,11.90
2019-02-08T17:03:14.922Z,11.80
2019-02-08T17:05:43.936Z,11.90
2019-02-08T17:08:12.849Z,12.00
2019-02-08T17:10:41.595Z,11.90
2019-02-08T17:13:10.274Z,11.70
2019-02-08T17:15:39.049Z,11.60
2019-02-08T17:18:08.285Z,11.50
2019-02-08T17:20:42.581Z,11.50
2019-02-08T17:23:11.302Z,11.60
2019-02-08T17:25:40.161Z,11.60
2019-02-08T17:28:09.638Z,11.40
2019-02-08T17:30:38.450Z,11.80
2019-02-08T17:33:08.555Z,11.60
2019-02-08T17:35:37.244Z,11.40
2019-02-08T17:38:05.968Z,11.40
2019-02-08T17:40:43.743Z,11.70
2019-02-08T17:43:12.433Z,11.50
2019-02-08T17:45:41.163Z,11.60
2019-02-08T17:48:12.863Z,11.40
2019-02-08T17:50:41.649Z,11.30
2019-02-08T17:53:10.408Z,11.50
2019-02-08T17:55:39.205Z,11.50
2019-02-08T17:58:07.992Z,11.70
2019-02-08T18:00:52.606Z,11.60
2019-02-08T18:03:21.276Z,11.30
2019-02-08T18:05:49.959Z,11.50
2019-02-08T18:08:18.657Z,11.30
2019-02-08T18:10:47.311Z,11.50
2019-02-08T18:13:17.028Z,11.30
2019-02-08T18:15:45.798Z,11.40
2019-02-08T18:18:16.326Z,11.50
2019-02-08T18:20:47.903Z,11.50
2019-02-08T18:23:16.641Z,11.50
2019-02-08T18:25:45.394Z,11.60
2019-02-08T18:28:14.242Z,11.60
2019-02-08T18:30:42.930Z,11.80
2019-02-08T18:33:11.664Z,11.40
2019-02-08T18:35:40.368Z,11.80
2019-02-08T18:38:09.050Z,11.60
2019-02-08T18:40:37.793Z,11.70
2019-02-08T18:43:06.566Z,11.50
2019-02-08T18:45:38.447Z,11.40
2019-02-08T18:48:07.486Z,11.60
2019-02-08T18:50:42.113Z,11.70
2019-02-08T18:53:10.778Z,11.70
2019-02-08T18:55:39.498Z,11.80
2019-02-08T18:58:08.183Z,12.00
2019-02-08T19:00:45.367Z,11.70
2019-02-08T19:03:14.047Z,11.80
2019-02-08T19:05:43.608Z,11.50
2019-02-08T19:08:12.452Z,11.50
2019-02-08T19:10:41.107Z,11.80
2019-02-08T19:13:09.827Z,11.60
2019-02-08T19:15:38.542Z,11.40
2019-02-08T19:18:07.757Z,11.60
2019-02-08T19:20:36.472Z,11.80
2019-02-08T19:23:06.060Z,11.80
2019-02-08T19:25:43.403Z,11.80
2019-02-08T19:28:13.171Z,11.50
2019-02-08T19:30:43.635Z,11.80
2019-02-08T19:33:12.369Z,11.40
2019-02-08T19:35:41.112Z,11.80
2019-02-08T19:38:09.973Z,11.70
2019-02-08T19:40:41.351Z,11.70
2019-02-08T19:43:10.045Z,12.00
2019-02-08T19:45:38.746Z,11.60
2019-02-08T19:48:08.842Z,11.80
2019-02-08T19:50:45.811Z,11.90
2019-02-08T19:53:14.514Z,12.00
2019-02-08T19:55:43.347Z,11.70
2019-02-08T19:58:12.283Z,11.70
2019-02-08T20:00:43.161Z,11.60
2019-02-08T20:03:11.946Z,11.60
2019-02-08T20:05:40.760Z,11.50
2019-02-08T20:08:11.460Z,11.80
2019-02-08T20:10:42.567Z,11.70
2019-02-08T20:13:11.295Z,11.70
2019-02-08T20:15:40.067Z,11.70
2019-02-08T20:18:08.914Z,11.80
2019-02-08T20:20:37.611Z,11.70
2019-02-08T20:23:07.080Z,11.80
2019-02-08T20:25:36.892Z,11.90
2019-02-08T20:28:06.364Z,11.70
2019-02-08T20:30:35.504Z,11.50
2019-02-08T20:33:04.665Z,11.90
2019-02-08T20:35:33.381Z,11.60
2019-02-08T20:38:02.096Z,12.00
2019-02-08T20:40:39.422Z,11.80
2019-02-08T20:43:08.343Z,11.70
2019-02-08T20:45:37.767Z,11.80
2019-02-08T20:48:09.658Z,11.50
2019-02-08T20:50:38.389Z,11.60
2019-02-08T20:53:07.285Z,11.70
2019-02-08T20:55:36.570Z,11.60
2019-02-08T20:58:08.571Z,11.80
2019-02-08T21:00:40.078Z,11.50
2019-02-08T21:03:11.622Z,11.50
2019-02-08T21:05:41.245Z,11.40
2019-02-08T21:08:11.172Z,11.60
2019-02-08T21:10:40.365Z,11.70
2019-02-08T21:13:10.206Z,11.50
2019-02-08T21:15:38.999Z,11.50
2019-02-08T21:18:08.285Z,11.60
2019-02-08T21:20:38.199Z,11.70
2019-02-08T21:23:07.482Z,11.50
2019-02-08T21:25:38.157Z,11.40
2019-02-08T21:28:07.296Z,11.30
2019-02-08T21:30:36.085Z,11.60
2019-02-08T21:33:06.769Z,11.40
2019-02-08T21:35:35.552Z,11.60
2019-02-08T21:38:05.272Z,11.50
2019-02-08T21:40:34.196Z,11.40
2019-02-08T21:43:02.927Z,11.50
2019-02-08T21:45:33.917Z,11.40
2019-02-08T21:48:02.813Z,11.50
2019-02-08T21:50:31.578Z,11.40
2019-02-08T21:53:00.306Z,11.30
2019-02-08T21:55:29.986Z,11.40
2019-02-08T21:57:58.826Z,11.60
2019-02-08T22:00:36.335Z,11.30
2019-02-08T22:03:06.480Z,11.50
2019-02-08T22:05:43.902Z,11.40
2019-02-08T22:08:12.742Z,11.40
2019-02-08T22:10:41.476Z,11.50
2019-02-08T22:13:10.210Z,11.30
2019-02-08T22:15:44.021Z,11.30
2019-02-08T22:18:12.916Z,11.40
2019-02-08T22:20:41.594Z,11.40
2019-02-08T22:23:10.317Z,11.50
2019-02-08T22:25:39.030Z,11.40
2019-02-08T22:28:08.112Z,11.40
2019-02-08T22:30:37.055Z,11.50
2019-02-08T22:33:08.360Z,11.40
2019-02-08T22:35:37.097Z,11.40
2019-02-08T22:38:08.726Z,11.60
2019-02-08T22:40:37.787Z,11.50
2019-02-08T22:43:07.069Z,11.30
2019-02-08T22:45:37.614Z,11.60
2019-02-08T22:48:06.581Z,11.70
2019-02-08T22:50:35.286Z,11.30
2019-02-08T22:53:05.211Z,11.50
2019-02-08T22:55:35.917Z,11.70
2019-02-08T22:58:06.033Z,11.60
2019-02-08T23:00:44.756Z,11.40
2019-02-08T23:03:14.551Z,11.70
2019-02-08T23:05:45.544Z,11.60
2019-02-08T23:08:13.954Z,11.50
2019-02-08T23:10:42.664Z,11.60
2019-02-08T23:13:11.537Z,11.70
2019-02-08T23:15:40.555Z,11.60
2019-02-08T23:18:10.602Z,11.70
2019-02-08T23:20:39.412Z,11.30
2019-02-08T23:23:08.594Z,11.60
2019-02-08T23:25:37.302Z,11.30
2019-02-08T23:28:06.434Z,11.30
2019-02-08T23:30:35.537Z,11.00
2019-02-08T23:33:04.706Z,11.30
2019-02-08T23:35:33.431Z,10.90
2019-02-08T23:38:02.104Z,11.00
2019-02-08T23:40:30.774Z,11.00
2019-02-08T23:42:59.578Z,11.00
2019-02-08T23:45:28.469Z,11.00
2019-02-08T23:47:57.164Z,11.00
2019-02-08T23:50:26.226Z,11.10
2019-02-08T23:52:55.027Z,11.10
2019-02-08T23:55:24.905Z,11.00
2019-02-08T23:57:53.926Z,10.80
